Дата Время Давление Темп. Влажн. Скор.ветра Напр.ветра Макс.ветер Осадки/час Осадки
18.08.22 20:00 748.3 25.8 43.3 2.1 120 4.8 0 0
18.08.22 19:00 747.8 29.8 33.5 1.1 106 4 0 0
18.08.22 18:00 747.3 30.7 31 1.9 112 6.1 0 0
18.08.22 17:00 746.8 31.5 28.3 1.4 88 6.6 0 0
18.08.22 16:00 746.6 31.6 29.9 1.6 64 6.7 0 0
18.08.22 15:00 746.6 31 32.6 2.7 109 6.3 0 0
18.08.22 14:00 746.8 30.2 38.4 2.2 113 6.2 0 0
18.08.22 13:00 746.2 30.8 35.9 1 90 5.2 0 0
18.08.22 12:00 746.5 29.2 45.8 1.8 108 5.7 0 0
18.08.22 11:00 746.7 27.3 49.6 2.1 115 5 0 0
18.08.22 10:00 747 26.3 52.3 1.1 76 2.9 0 0
18.08.22 09:00 747.1 23.4 59.2 1.2 113 3 0 0
18.08.22 08:00 747.7 20.4 66.3 1.5 106 3.5 0 0
18.08.22 07:00 747.8 18.4 74 0.8 71 3.7 0 0
18.08.22 06:00 747.8 17.3 78.5 0.8 97 2 0 0
18.08.22 05:00 747.8 17 79.5 0.7 32 1.3 0 0
18.08.22 04:00 747.8 18.2 75.4 0.7 354 2.7 0 0
18.08.22 03:00 747.6 19.3 70.5 1.6 117 3.9 0 0
18.08.22 02:00 747.5 19.7 70.2 0.7 29 4.1 0 0
18.08.22 01:00 747.1 21.5 62.4 1.2 119 3.1 0 0
18.08.22 00:00 747.1 21.2 64.4 0.8 99 2.3 0 0
17.08.22 23:00 747 21.7 61.7 0.7 57 2.5 0 0
17.08.22 22:00 746.9 22.8 56.9 1 104 3.1 0 0
17.08.22 21:00 747.1 23.2 58.5 0.7 79 1.6 0 0